Time;durP1;ratioP1;P1;durP2;ratioP2;P2;SDS_P1;SDS_P2;PMS_P1;PMS_P2;Temp;Humidity;BMP_temperature;BMP_pressure;BME280_temperature;BME280_humidity;BME280_pressure;Samples;Min_cycle;Max_cycle;Signal;HPM_P1;HPM_P2
2021/12/13 00:00:07;;;;;;;;;;;;;;;3.68;56.80;96387.00;5004409;28;20486;-66
2021/12/13 00:02:35;;;;;;;;;;;;;;;3.36;55.92;96387.59;5003625;28;20020;-66
2021/12/13 00:05:12;;;;;;;;;;;;;;;3.59;56.17;96385.06;5010128;28;19986;-66
2021/12/13 00:07:39;;;;;;;;;;;;;;;3.72;55.35;96378.88;5006645;28;19990;-66
2021/12/13 00:10:15;;;;;;;;;;;;;;;3.85;55.22;96379.63;5009639;28;19970;-66
2021/12/13 00:12:42;;;;;;;;;;;;;;;3.94;53.49;96384.19;5009036;28;20532;-66
2021/12/13 00:15:09;;;;;;;;;;;;;;;4.05;53.05;96386.00;5002735;28;19997;-66
2021/12/13 00:17:36;;;;;;;;;;;;;;;4.25;52.62;96383.63;5009830;28;19989;-66
2021/12/13 00:20:28;;;;;;;;;;;;;;;4.27;51.96;96379.09;5004987;28;20025;-66
2021/12/13 00:22:54;;;;;;;;;;;;;;;4.15;53.29;96386.13;5012086;28;20068;-66
2021/12/13 00:25:20;;;;;;;;;;;;;;;4.21;53.41;96379.53;5004586;28;20368;-66
2021/12/13 00:27:47;;;;;;;;;;;;;;;4.12;54.08;96372.38;5006305;28;20107;-66
2021/12/13 00:30:22;;;;;;;;;;;;;;;3.94;55.15;96380.72;5005703;28;20020;-66
2021/12/13 00:33:06;;;;;;;;;;;;;;;3.54;56.29;96377.50;5022400;28;19996;-66
2021/12/13 00:36:03;;;;;;;;;;;;;;;3.38;57.16;96380.44;5006211;28;20478;-66
2021/12/13 00:38:29;;;;;;;;;;;;;;;3.00;58.66;96381.44;5011336;28;20471;-66
2021/12/13 00:40:57;;;;;;;;;;;;;;;2.38;60.79;96384.00;5015657;28;20043;-66
2021/12/13 00:43:42;;;;;;;;;;;;;;;2.15;60.91;96375.97;5005419;28;20580;-66
2021/12/13 00:46:09;;;;;;;;;;;;;;;2.10;61.77;96373.66;5004183;28;20439;-68
2021/12/13 00:48:35;;;;;;;;;;;;;;;2.29;60.80;96376.78;4991139;28;19990;-66
2021/12/13 00:51:04;;;;;;;;;;;;;;;2.21;60.75;96380.78;4985778;28;20485;-66
2021/12/13 00:53:33;;;;;;;;;;;;;;;1.89;61.95;96386.47;5016339;28;20766;-66
2021/12/13 00:55:58;;;;;;;;;;;;;;;1.75;62.30;96390.03;5015289;28;19992;-66
2021/12/13 00:58:24;;;;;;;;;;;;;;;1.84;63.02;96386.78;5007340;28;19985;-66
2021/12/13 01:00:51;;;;;;;;;;;;;;;1.78;63.14;96387.19;5005259;28;20068;-66
2021/12/13 01:03:16;;;;;;;;;;;;;;;1.83;63.57;96400.84;5006391;28;20082;-66
2021/12/13 01:06:08;;;;;;;;;;;;;;;1.79;62.71;96396.75;5004496;28;20415;-66
2021/12/13 01:08:42;;;;;;;;;;;;;;;1.34;64.92;96391.81;5001045;28;20066;-66
2021/12/13 01:11:17;;;;;;;;;;;;;;;1.41;64.42;96389.63;5019663;28;19988;-66
2021/12/13 01:13:44;;;;;;;;;;;;;;;1.87;62.67;96396.22;5009421;28;19969;-66
2021/12/13 01:16:21;;;;;;;;;;;;;;;1.88;62.76;96390.88;5004428;28;19998;-66
2021/12/13 01:19:13;;;;;;;;;;;;;;;1.88;62.84;96398.75;5001014;28;20083;-66
2021/12/13 01:21:43;;;;;;;;;;;;;;;2.20;61.56;96399.28;5009170;28;19976;-66
2021/12/13 01:24:13;;;;;;;;;;;;;;;2.50;60.12;96400.72;5009628;28;19994;-66
2021/12/13 01:26:46;;;;;;;;;;;;;;;2.79;59.69;96410.97;5000786;28;20412;-66
2021/12/13 01:29:18;;;;;;;;;;;;;;;2.89;59.64;96404.09;5021328;28;20109;-66
2021/12/13 01:31:48;;;;;;;;;;;;;;;3.05;57.48;96405.63;5013187;28;20063;-66
2021/12/13 01:34:13;;;;;;;;;;;;;;;3.24;56.87;96404.28;5001589;28;20536;-66
2021/12/13 01:36:47;;;;;;;;;;;;;;;3.25;57.46;96406.81;5001239;28;20080;-66
2021/12/13 01:39:14;;;;;;;;;;;;;;;3.09;57.53;96408.88;4995320;28;19997;-66
2021/12/13 01:41:41;;;;;;;;;;;;;;;3.32;57.85;96412.47;5019820;28;19973;-66
2021/12/13 01:44:11;;;;;;;;;;;;;;;3.24;57.43;96420.94;5008539;28;20475;-66
2021/12/13 01:46:37;;;;;;;;;;;;;;;3.61;56.80;96416.56;5001649;28;20471;-66
2021/12/13 01:49:03;;;;;;;;;;;;;;;3.84;55.85;96411.38;5020347;28;19994;-66
2021/12/13 01:51:33;;;;;;;;;;;;;;;3.86;55.88;96407.66;5013900;28;20374;-66
2021/12/13 01:54:06;;;;;;;;;;;;;;;4.05;54.61;96407.09;5001175;28;19970;-66
2021/12/13 01:57:09;;;;;;;;;;;;;;;4.01;54.56;96408.28;5014130;28;20631;-66
2021/12/13 02:02:07;;;;;;;;;;;;;;;4.23;54.27;96409.28;5001363;28;19974;-66
2021/12/13 02:04:33;;;;;;;;;;;;;;;4.39;53.37;96411.53;5017660;28;19993;-66
2021/12/13 02:07:01;;;;;;;;;;;;;;;4.54;52.37;96413.94;5022765;28;19973;-66
2021/12/13 02:09:27;;;;;;;;;;;;;;;4.70;52.08;96413.59;5003809;28;19962;-66
2021/12/13 02:11:54;;;;;;;;;;;;;;;4.75;51.90;96410.56;5013064;28;19986;-67
2021/12/13 02:14:21;;;;;;;;;;;;;;;4.82;51.40;96407.34;5024376;28;20035;-66
2021/12/13 02:20:06;;;;;;;;;;;;;;;4.83;51.73;96416.09;5010374;28;20382;-66
2021/12/13 02:22:31;;;;;;;;;;;;;;;4.75;51.56;96416.69;5009288;28;20419;-66
2021/12/13 02:24:58;;;;;;;;;;;;;;;4.91;50.92;96418.13;5022576;28;20002;-66
2021/12/13 02:27:25;;;;;;;;;;;;;;;5.02;50.63;96415.47;5018274;28;20347;-66
2021/12/13 02:29:50;;;;;;;;;;;;;;;5.06;50.17;96424.00;5003541;28;20040;-66
2021/12/13 02:32:16;;;;;;;;;;;;;;;5.08;50.21;96416.81;5015403;28;19994;-67
2021/12/13 02:34:42;;;;;;;;;;;;;;;5.02;50.40;96411.97;5011918;28;19974;-66
2021/12/13 02:37:07;;;;;;;;;;;;;;;5.12;49.95;96407.66;5023154;28;20015;-66
2021/12/13 02:39:34;;;;;;;;;;;;;;;5.18;49.45;96412.47;5017720;28;20024;-66
2021/12/13 02:42:00;;;;;;;;;;;;;;;5.12;49.75;96420.03;5004513;28;19974;-66
2021/12/13 02:44:29;;;;;;;;;;;;;;;5.22;49.09;96416.53;5018358;28;20510;-66
2021/12/13 02:46:56;;;;;;;;;;;;;;;5.14;50.22;96421.56;5020808;28;19985;-66
2021/12/13 02:49:21;;;;;;;;;;;;;;;5.02;50.76;96422.53;5003190;28;20405;-66
2021/12/13 02:51:51;;;;;;;;;;;;;;;4.97;50.79;96426.38;5009660;28;20001;-66
2021/12/13 02:54:17;;;;;;;;;;;;;;;5.16;49.97;96422.28;5016288;28;20019;-66
2021/12/13 02:56:46;;;;;;;;;;;;;;;5.08;50.19;96424.72;5007943;28;19994;-66
2021/12/13 02:59:12;;;;;;;;;;;;;;;5.20;49.49;96425.50;5008134;28;19993;-66
2021/12/13 03:01:40;;;;;;;;;;;;;;;5.02;50.84;96428.66;5023912;28;20358;-66
2021/12/13 03:04:06;;;;;;;;;;;;;;;5.12;50.83;96420.88;5012449;28;19982;-66
2021/12/13 03:06:33;;;;;;;;;;;;;;;5.06;50.60;96418.72;5002736;28;20062;-66
2021/12/13 03:09:01;;;;;;;;;;;;;;;5.07;50.30;96415.13;5019192;28;19992;-66
2021/12/13 03:11:30;;;;;;;;;;;;;;;4.99;50.23;96420.97;5013290;28;19989;-66
2021/12/13 03:13:56;;;;;;;;;;;;;;;4.94;50.19;96420.53;5008542;28;19970;-66
2021/12/13 03:16:25;;;;;;;;;;;;;;;4.97;50.08;96420.28;5012267;28;20000;-66
2021/12/13 03:18:56;;;;;;;;;;;;;;;5.09;49.89;96419.31;4996437;28;20029;-66
2021/12/13 03:21:27;;;;;;;;;;;;;;;5.12;49.66;96412.94;5007923;28;20004;-66
2021/12/13 03:24:01;;;;;;;;;;;;;;;4.89;52.24;96426.16;5002266;28;20593;-66
2021/12/13 03:26:42;;;;;;;;;;;;;;;4.99;50.86;96428.91;5005989;28;19993;-65
2021/12/13 03:29:07;;;;;;;;;;;;;;;4.87;51.54;96421.97;4996983;28;20505;-66
2021/12/13 03:31:40;;;;;;;;;;;;;;;4.83;50.83;96424.84;5014512;28;19993;-66
2021/12/13 03:34:14;;;;;;;;;;;;;;;4.89;50.23;96415.59;5015693;28;19974;-66
2021/12/13 03:36:45;;;;;;;;;;;;;;;4.97;50.59;96426.38;5000186;28;20481;-66
2021/12/13 03:39:14;;;;;;;;;;;;;;;4.64;51.78;96416.69;5009355;28;20438;-66
2021/12/13 03:41:41;;;;;;;;;;;;;;;4.74;52.09;96420.31;5016516;28;20045;-66
2021/12/13 03:44:08;;;;;;;;;;;;;;;4.59;52.61;96419.69;5010533;28;20483;-65
2021/12/13 03:46:33;;;;;;;;;;;;;;;4.84;51.60;96425.69;5020380;28;19982;-66
2021/12/13 03:48:59;;;;;;;;;;;;;;;4.59;52.83;96427.59;4993463;28;19986;-65
2021/12/13 03:51:26;;;;;;;;;;;;;;;4.68;51.56;96432.19;5012641;28;19990;-66
2021/12/13 03:53:51;;;;;;;;;;;;;;;4.62;52.90;96435.28;5014403;28;20174;-65
2021/12/13 03:56:18;;;;;;;;;;;;;;;4.66;52.07;96439.34;5027165;28;20478;-65
2021/12/13 03:58:45;;;;;;;;;;;;;;;4.38;53.71;96430.97;5013445;28;20458;-66
2021/12/13 04:01:14;;;;;;;;;;;;;;;4.49;53.08;96437.22;5007295;28;19973;-66
2021/12/13 04:03:40;;;;;;;;;;;;;;;4.38;52.45;96430.97;4992560;28;19998;-65
2021/12/13 04:06:05;;;;;;;;;;;;;;;4.55;52.86;96428.81;5007159;28;19969;-66
2021/12/13 04:08:30;;;;;;;;;;;;;;;4.71;51.76;96429.31;5015300;28;19986;-65
2021/12/13 04:10:59;;;;;;;;;;;;;;;4.66;51.21;96436.72;5025159;28;20427;-65
2021/12/13 04:13:26;;;;;;;;;;;;;;;4.86;50.73;96433.50;5005909;28;20640;-65
2021/12/13 04:16:08;;;;;;;;;;;;;;;5.04;50.13;96444.38;5016176;28;20445;-66
2021/12/13 04:21:17;;;;;;;;;;;;;;;5.19;49.97;96445.81;5026485;28;20408;-66
2021/12/13 04:23:48;;;;;;;;;;;;;;;5.24;50.02;96442.81;5024794;28;19997;-66
2021/12/13 04:26:13;;;;;;;;;;;;;;;5.30;49.61;96444.09;5025445;28;20032;-66
2021/12/13 04:28:43;;;;;;;;;;;;;;;5.41;48.76;96453.81;5013250;28;20040;-66
2021/12/13 04:31:11;;;;;;;;;;;;;;;5.48;48.97;96460.28;5022342;28;20411;-66
2021/12/13 04:33:38;;;;;;;;;;;;;;;5.53;48.82;96457.22;4989706;28;19985;-65
2021/12/13 04:36:05;;;;;;;;;;;;;;;5.58;48.46;96460.34;5009802;28;19997;-65
2021/12/13 04:38:31;;;;;;;;;;;;;;;5.61;48.33;96449.50;5025291;28;20020;-66
2021/12/13 04:40:57;;;;;;;;;;;;;;;5.65;48.21;96453.59;5006396;28;20516;-66
2021/12/13 04:43:22;;;;;;;;;;;;;;;5.67;48.11;96450.81;4992876;28;20052;-65
2021/12/13 04:45:48;;;;;;;;;;;;;;;5.68;47.85;96455.97;5006508;28;20370;-66
2021/12/13 04:48:15;;;;;;;;;;;;;;;5.65;48.00;96455.41;4992887;28;19996;-66
2021/12/13 04:51:09;;;;;;;;;;;;;;;5.63;48.06;96460.81;5005044;28;20296;-66
2021/12/13 04:53:35;;;;;;;;;;;;;;;5.69;47.84;96459.47;5014036;28;19985;-66
2021/12/13 04:56:01;;;;;;;;;;;;;;;5.71;47.87;96457.50;5025900;28;20001;-65
2021/12/13 04:58:27;;;;;;;;;;;;;;;5.73;47.63;96453.81;5013559;28;19993;-65
2021/12/13 05:00:53;;;;;;;;;;;;;;;5.76;47.51;96457.16;5021641;28;20374;-65
2021/12/13 05:03:20;;;;;;;;;;;;;;;5.78;47.56;96466.63;5012861;28;19995;-66
2021/12/13 05:05:45;;;;;;;;;;;;;;;5.78;47.18;96456.06;5024805;28;20031;-67
2021/12/13 05:08:13;;;;;;;;;;;;;;;5.77;47.72;96462.31;5018445;28;20406;-66
2021/12/13 05:10:39;;;;;;;;;;;;;;;5.78;47.29;96468.44;5021869;28;21877;-66
2021/12/13 05:13:04;;;;;;;;;;;;;;;5.76;47.39;96473.00;5018170;28;20096;-66
2021/12/13 05:15:29;;;;;;;;;;;;;;;5.76;47.60;96467.72;5023661;28;19998;-66
2021/12/13 05:17:55;;;;;;;;;;;;;;;5.74;47.83;96471.34;5025295;28;19997;-66
2021/12/13 05:20:21;;;;;;;;;;;;;;;5.75;47.65;96469.53;5023319;28;20024;-66
2021/12/13 05:22:48;;;;;;;;;;;;;;;5.74;47.18;96484.53;5002003;28;19970;-66
2021/12/13 05:25:18;;;;;;;;;;;;;;;5.72;47.51;96478.53;5017818;28;20216;-66
2021/12/13 05:27:45;;;;;;;;;;;;;;;5.72;47.51;96486.47;5021822;28;20001;-66
2021/12/13 05:30:15;;;;;;;;;;;;;;;5.73;47.74;96488.16;5025724;28;20064;-66
2021/12/13 05:32:42;;;;;;;;;;;;;;;5.76;47.50;96487.06;5022932;28;20001;-66
2021/12/13 05:35:26;;;;;;;;;;;;;;;5.76;47.48;96473.00;5008830;28;20517;-66
2021/12/13 05:37:54;;;;;;;;;;;;;;;5.73;47.68;96482.03;5023048;28;20039;-66
2021/12/13 05:40:23;;;;;;;;;;;;;;;5.72;47.60;96483.81;5018113;28;20001;-66
2021/12/13 05:42:50;;;;;;;;;;;;;;;5.71;47.57;96474.22;5016260;28;20042;-66
2021/12/13 05:45:19;;;;;;;;;;;;;;;5.72;47.56;96480.34;5023596;28;20254;-66
2021/12/13 05:47:54;;;;;;;;;;;;;;;5.74;47.74;96484.53;5024549;28;20694;-67
2021/12/13 05:50:27;;;;;;;;;;;;;;;5.76;47.45;96484.44;5018213;28;20009;-65
2021/12/13 05:52:58;;;;;;;;;;;;;;;5.70;47.69;96485.75;5016012;28;20646;-66
2021/12/13 05:55:24;;;;;;;;;;;;;;;5.64;48.06;96478.31;5017186;28;19990;-68
2021/12/13 05:57:49;;;;;;;;;;;;;;;5.62;47.83;96485.56;5022471;28;20004;-69
2021/12/13 06:00:19;;;;;;;;;;;;;;;5.57;48.02;96483.28;5019246;28;20004;-69
2021/12/13 06:02:56;;;;;;;;;;;;;;;5.60;48.03;96484.81;5016939;28;20009;-69
2021/12/13 06:05:26;;;;;;;;;;;;;;;5.59;47.71;96484.00;5022397;28;19972;-66
2021/12/13 06:07:52;;;;;;;;;;;;;;;5.56;47.93;96480.75;5014433;28;20458;-65
2021/12/13 06:10:18;;;;;;;;;;;;;;;5.55;48.11;96479.91;5022592;28;19966;-65
2021/12/13 06:12:54;;;;;;;;;;;;;;;5.55;48.13;96487.00;5018569;28;20445;-65
2021/12/13 06:15:21;;;;;;;;;;;;;;;5.58;48.29;96486.78;5024215;28;20742;-65
2021/12/13 06:17:49;;;;;;;;;;;;;;;5.58;47.72;96484.13;5009422;28;20495;-66
2021/12/13 06:20:16;;;;;;;;;;;;;;;5.59;47.91;96489.28;5015949;28;20204;-66
2021/12/13 06:22:41;;;;;;;;;;;;;;;5.61;47.92;96490.00;5013176;28;19977;-65
2021/12/13 06:25:09;;;;;;;;;;;;;;;5.66;47.83;96494.91;5010510;28;19998;-65
2021/12/13 06:27:47;;;;;;;;;;;;;;;5.66;47.83;96489.63;5021108;28;20004;-66
2021/12/13 06:30:32;;;;;;;;;;;;;;;5.65;47.98;96490.59;5012012;28;19982;-66
2021/12/13 06:32:57;;;;;;;;;;;;;;;5.68;47.83;96494.78;5016706;28;20512;-66
2021/12/13 06:35:41;;;;;;;;;;;;;;;5.69;47.70;96499.09;5019629;28;19993;-65
2021/12/13 06:38:19;;;;;;;;;;;;;;;5.60;48.01;96498.03;5016667;28;19985;-66
2021/12/13 06:40:58;;;;;;;;;;;;;;;5.62;48.09;96496.13;5010011;28;20471;-66
2021/12/13 06:43:37;;;;;;;;;;;;;;;5.64;47.38;96496.00;5011699;28;20091;-66
2021/12/13 06:46:25;;;;;;;;;;;;;;;5.65;47.77;96501.16;5007407;28;20520;-66
2021/12/13 06:49:06;;;;;;;;;;;;;;;5.68;47.89;96503.53;5020508;28;19994;-66
2021/12/13 06:51:39;;;;;;;;;;;;;;;5.70;47.87;96498.97;5000082;28;20004;-66
2021/12/13 06:54:10;;;;;;;;;;;;;;;5.73;47.80;96504.00;5011036;28;19966;-66
2021/12/13 06:56:35;;;;;;;;;;;;;;;5.71;47.58;96503.28;5021572;28;19994;-66
2021/12/13 06:59:02;;;;;;;;;;;;;;;5.71;47.58;96503.28;5009228;28;19990;-66
2021/12/13 07:01:27;;;;;;;;;;;;;;;5.72;47.79;96504.13;5013896;28;19985;-66
2021/12/13 07:04:03;;;;;;;;;;;;;;;5.71;47.94;96502.44;5008969;28;20397;-66
2021/12/13 07:06:28;;;;;;;;;;;;;;;5.70;47.68;96509.53;5017549;28;20510;-65
2021/12/13 07:09:20;;;;;;;;;;;;;;;5.71;47.86;96503.28;5010801;28;20064;-65
2021/12/13 07:11:47;;;;;;;;;;;;;;;5.71;47.97;96507.72;5009545;28;20016;-65
2021/12/13 07:14:14;;;;;;;;;;;;;;;5.72;47.81;96504.13;5017542;28;20471;-66
2021/12/13 07:16:40;;;;;;;;;;;;;;;5.72;47.77;96504.97;5005954;28;19986;-65
2021/12/13 07:19:24;;;;;;;;;;;;;;;5.73;47.61;96508.44;5014352;28;20446;-65
2021/12/13 07:21:54;;;;;;;;;;;;;;;5.71;47.87;96510.38;5021555;28;20003;-66
2021/12/13 07:24:26;;;;;;;;;;;;;;;5.73;47.86;96513.72;5022678;28;20135;-66
2021/12/13 07:27:07;;;;;;;;;;;;;;;5.73;47.77;96516.38;5018489;28;20048;-68
2021/12/13 07:29:35;;;;;;;;;;;;;;;5.72;47.79;96520.81;5017365;28;20496;-66
2021/12/13 07:32:05;;;;;;;;;;;;;;;5.75;47.86;96519.75;5017944;28;19990;-68
2021/12/13 07:34:31;;;;;;;;;;;;;;;5.78;47.59;96523.94;5012759;28;19974;-69
2021/12/13 07:37:01;;;;;;;;;;;;;;;5.76;47.69;96520.56;5018315;28;19991;-69
2021/12/13 07:39:27;;;;;;;;;;;;;;;5.79;47.57;96528.25;5003607;28;20032;-69
2021/12/13 07:41:54;;;;;;;;;;;;;;;5.80;47.75;96524.63;5009302;28;19981;-69
2021/12/13 07:44:40;;;;;;;;;;;;;;;5.85;47.54;96531.22;5019672;28;20036;-69
2021/12/13 07:47:11;;;;;;;;;;;;;;;5.87;47.52;96533.75;5004801;28;20285;-69
2021/12/13 07:49:37;;;;;;;;;;;;;;;5.89;47.39;96529.19;5019726;28;19973;-69
2021/12/13 07:52:03;;;;;;;;;;;;;;;5.92;47.48;96530.72;4999688;28;20055;-70
2021/12/13 07:54:29;;;;;;;;;;;;;;;5.96;47.09;96527.69;5012664;28;20165;-69
2021/12/13 07:56:57;;;;;;;;;;;;;;;5.94;47.27;96532.28;5015842;28;19996;-69
2021/12/13 07:59:26;;;;;;;;;;;;;;;5.96;47.35;96532.16;5020232;28;20051;-70
2021/12/13 08:02:07;;;;;;;;;;;;;;;5.97;47.39;96534.69;5019035;28;20803;-70
2021/12/13 08:04:33;;;;;;;;;;;;;;;6.00;47.26;96538.88;5014180;28;19993;-70
2021/12/13 08:07:08;;;;;;;;;;;;;;;6.05;47.30;96549.06;5018671;28;20068;-70
2021/12/13 08:09:34;;;;;;;;;;;;;;;6.08;47.06;96548.78;5010723;28;20072;-70
2021/12/13 08:12:04;;;;;;;;;;;;;;;6.11;47.04;96545.91;5014357;28;20525;-70
2021/12/13 08:14:35;;;;;;;;;;;;;;;6.16;46.88;96549.03;5022343;28;20485;-70
2021/12/13 08:17:19;;;;;;;;;;;;;;;6.17;46.86;96540.13;5013382;28;19989;-70
2021/12/13 08:19:53;;;;;;;;;;;;;;;6.21;46.78;96546.84;5006336;28;20004;-70
2021/12/13 08:22:19;;;;;;;;;;;;;;;6.27;46.76;96549.91;5017461;28;19970;-70
2021/12/13 08:24:48;;;;;;;;;;;;;;;6.31;46.47;96551.34;5015431;28;20301;-70
2021/12/13 08:27:34;;;;;;;;;;;;;;;6.33;46.38;96539.66;5030604;28;19994;-70
2021/12/13 08:30:07;;;;;;;;;;;;;;;6.39;46.27;96551.53;5018926;28;20220;-70
2021/12/13 08:32:32;;;;;;;;;;;;;;;6.44;46.18;96548.50;5017822;28;20048;-66
2021/12/13 08:35:00;;;;;;;;;;;;;;;6.48;45.96;96557.88;5018623;28;19974;-66
2021/12/13 08:37:26;;;;;;;;;;;;;;;6.48;45.82;96557.88;5016882;28;19965;-65
2021/12/13 08:39:54;;;;;;;;;;;;;;;6.52;45.96;96553.22;5006086;28;20076;-65
2021/12/13 08:42:21;;;;;;;;;;;;;;;6.57;45.86;96556.28;5014675;28;20194;-66
2021/12/13 08:44:52;;;;;;;;;;;;;;;6.67;45.69;96566.94;5015995;28;20511;-67
2021/12/13 08:47:22;;;;;;;;;;;;;;;6.70;45.57;96567.50;5007637;28;19997;-66
2021/12/13 08:50:13;;;;;;;;;;;;;;;6.76;45.39;96569.66;5010274;28;19977;-66
2021/12/13 08:52:40;;;;;;;;;;;;;;;6.84;45.19;96573.44;5013039;28;20359;-65
2021/12/13 08:55:11;;;;;;;;;;;;;;;6.85;45.26;96573.31;5010609;28;19993;-66
2021/12/13 08:57:36;;;;;;;;;;;;;;;6.85;45.23;96583.06;5006116;28;20439;-66
2021/12/13 09:00:14;;;;;;;;;;;;;;;6.86;45.41;96574.13;5012450;28;20453;-66
2021/12/13 09:02:59;;;;;;;;;;;;;;;6.90;45.33;96578.19;5016084;28;19969;-66
2021/12/13 09:05:32;;;;;;;;;;;;;;;6.92;45.06;96584.22;5013393;28;19989;-66
2021/12/13 09:07:59;;;;;;;;;;;;;;;6.93;44.88;96588.53;5012846;28;20369;-66
2021/12/13 09:10:43;;;;;;;;;;;;;;;6.95;45.12;96591.06;5010982;28;20216;-66
2021/12/13 09:13:08;;;;;;;;;;;;;;;7.05;44.78;96599.06;5010115;28;20355;-66
2021/12/13 09:15:35;;;;;;;;;;;;;;;7.09;44.58;96587.22;5018092;28;19997;-66
2021/12/13 09:18:00;;;;;;;;;;;;;;;7.08;44.93;96594.34;5015057;28;20000;-66
2021/12/13 09:20:25;;;;;;;;;;;;;;;7.07;44.95;96587.34;5011749;28;19994;-66
2021/12/13 09:22:52;;;;;;;;;;;;;;;7.07;44.92;96595.28;5019797;28;19973;-66
2021/12/13 09:25:38;;;;;;;;;;;;;;;7.06;44.90;96590.97;5020640;28;20001;-65
2021/12/13 09:28:15;;;;;;;;;;;;;;;7.06;45.15;96593.63;5008182;28;20028;-68
2021/12/13 09:30:54;;;;;;;;;;;;;;;7.02;45.12;96593.06;5008973;28;19992;-66
2021/12/13 09:33:20;;;;;;;;;;;;;;;7.10;44.42;96586.25;5016102;28;19990;-66
2021/12/13 09:36:23;;;;;;;;;;;;;;;7.16;44.62;96585.72;5013076;28;19993;-65
2021/12/13 09:38:52;;;;;;;;;;;;;;;7.21;44.42;96586.16;5032815;28;20472;-65
2021/12/13 09:41:20;;;;;;;;;;;;;;;7.23;44.36;96584.22;5026589;28;20906;-65
2021/12/13 09:43:48;;;;;;;;;;;;;;;7.27;44.39;96588.28;5024556;28;20159;-65
2021/12/13 09:46:15;;;;;;;;;;;;;;;7.28;44.29;96597.91;5009640;28;20069;-65
2021/12/13 09:48:42;;;;;;;;;;;;;;;7.31;44.00;96588.03;5005265;28;20450;-66
2021/12/13 09:51:10;;;;;;;;;;;;;;;7.31;44.21;96599.44;5015382;28;19993;-65
2021/12/13 09:53:36;;;;;;;;;;;;;;;7.33;44.21;96586.91;5012729;28;19973;-65
2021/12/13 09:56:04;;;;;;;;;;;;;;;7.37;43.96;96588.31;5017893;28;20071;-65
2021/12/13 09:58:37;;;;;;;;;;;;;;;7.38;44.14;96581.22;5004756;28;19993;-66
2021/12/13 10:01:08;;;;;;;;;;;;;;;7.37;44.40;96590.97;5010128;28;20581;-65
2021/12/13 10:03:51;;;;;;;;;;;;;;;7.38;44.02;96589.19;5019450;28;20048;-65
2021/12/13 10:06:18;;;;;;;;;;;;;;;7.38;44.29;96587.34;5018746;28;19978;-65
2021/12/13 10:08:44;;;;;;;;;;;;;;;7.40;44.20;96584.56;5013505;28;20381;-65
2021/12/13 10:11:11;;;;;;;;;;;;;;;7.39;44.12;96578.41;5004711;28;20436;-65
2021/12/13 10:13:37;;;;;;;;;;;;;;;7.44;44.49;96571.91;5016509;28;19974;-65
2021/12/13 10:16:10;;;;;;;;;;;;;;;7.46;43.91;96565.50;5004582;28;20375;-65
2021/12/13 10:18:36;;;;;;;;;;;;;;;7.51;43.95;96571.22;5010335;28;20001;-65
2021/12/13 10:21:01;;;;;;;;;;;;;;;7.56;44.11;96578.78;5005016;28;19990;-64
2021/12/13 10:23:28;;;;;;;;;;;;;;;7.57;43.90;96576.94;5011029;28;20217;-65
2021/12/13 10:25:54;;;;;;;;;;;;;;;7.60;43.85;96582.81;5009429;28;20514;-65
2021/12/13 10:28:23;;;;;;;;;;;;;;;7.49;45.62;96581.13;5007807;28;20468;-65
2021/12/13 10:30:50;;;;;;;;;;;;;;;7.32;44.83;96582.59;5010210;28;19981;-65
2021/12/13 10:33:15;;;;;;;;;;;;;;;7.44;44.27;96579.84;5007748;28;19977;-65
2021/12/13 10:35:41;;;;;;;;;;;;;;;7.52;43.95;96572.06;4996100;28;20450;-65
2021/12/13 10:38:08;;;;;;;;;;;;;;;7.60;44.06;96568.72;5017157;28;20088;-65
2021/12/13 10:40:35;;;;;;;;;;;;;;;7.66;43.96;96569.00;5019394;28;20404;-65
2021/12/13 10:43:02;;;;;;;;;;;;;;;7.68;44.23;96571.53;5007801;28;19970;-68
2021/12/13 10:45:29;;;;;;;;;;;;;;;7.72;44.05;96564.97;5023556;28;19974;-65
2021/12/13 10:47:55;;;;;;;;;;;;;;;7.75;43.64;96567.38;5011471;28;20083;-65
2021/12/13 10:50:22;;;;;;;;;;;;;;;7.81;43.55;96559.84;5002346;28;20439;-65
2021/12/13 10:52:48;;;;;;;;;;;;;;;7.86;43.21;96566.44;5014624;28;20001;-65
2021/12/13 10:55:24;;;;;;;;;;;;;;;7.97;43.15;96569.94;5032025;28;20619;-65
2021/12/13 10:57:50;;;;;;;;;;;;;;;8.06;43.03;96574.41;5012767;28;20029;-65
2021/12/13 11:00:17;;;;;;;;;;;;;;;8.04;42.95;96563.97;5008702;28;20047;-65
2021/12/13 11:02:42;;;;;;;;;;;;;;;8.07;43.32;96567.28;5012853;28;20638;-65
2021/12/13 11:05:09;;;;;;;;;;;;;;;8.10;43.08;96573.19;5033603;28;20020;-65
2021/12/13 11:07:35;;;;;;;;;;;;;;;8.15;42.65;96575.38;5011639;28;20013;-66
2021/12/13 11:10:00;;;;;;;;;;;;;;;8.17;43.01;96560.19;4997295;28;19970;-65
2021/12/13 11:12:33;;;;;;;;;;;;;;;8.23;43.29;96569.41;5004003;28;20055;-65
2021/12/13 11:15:00;;;;;;;;;;;;;;;8.26;42.80;96569.94;5018651;28;19981;-66
2021/12/13 11:17:25;;;;;;;;;;;;;;;8.30;42.19;96570.53;5010078;28;20605;-65
2021/12/13 11:19:52;;;;;;;;;;;;;;;8.37;42.08;96565.50;5027310;28;19997;-66
2021/12/13 11:22:19;;;;;;;;;;;;;;;8.42;42.39;96561.44;5013213;28;20046;-65
2021/12/13 11:24:45;;;;;;;;;;;;;;;8.44;42.50;96562.13;5014610;28;20039;-66
2021/12/13 11:27:12;;;;;;;;;;;;;;;8.48;41.98;96565.34;5002791;28;20064;-66
2021/12/13 11:29:41;;;;;;;;;;;;;;;8.45;42.57;96562.97;5012161;28;20433;-65
2021/12/13 11:32:25;;;;;;;;;;;;;;;8.50;42.22;96558.06;5003841;28;19997;-66
2021/12/13 11:35:11;;;;;;;;;;;;;;;8.53;42.31;96551.63;5019118;28;20439;-66
2021/12/13 11:37:55;;;;;;;;;;;;;;;8.56;41.96;96548.69;5013843;28;19989;-68
2021/12/13 11:40:20;;;;;;;;;;;;;;;8.57;41.96;96561.00;5011106;28;19989;-66
2021/12/13 11:43:04;;;;;;;;;;;;;;;8.66;41.77;96551.31;5015215;28;20030;-66
2021/12/13 11:45:35;;;;;;;;;;;;;;;8.75;41.85;96552.28;5013753;28;20459;-68
2021/12/13 11:48:05;;;;;;;;;;;;;;;8.79;41.38;96549.22;5015665;28;19996;-65
2021/12/13 11:50:39;;;;;;;;;;;;;;;8.84;41.40;96556.72;5007230;28;20025;-65
2021/12/13 11:53:40;;;;;;;;;;;;;;;8.91;41.23;96549.06;5009658;28;19994;-65
2021/12/13 11:56:24;;;;;;;;;;;;;;;8.89;41.50;96548.34;5018502;28;20102;-65
2021/12/13 11:59:00;;;;;;;;;;;;;;;8.90;41.35;96547.34;5010692;28;20139;-65
2021/12/13 12:01:46;;;;;;;;;;;;;;;8.97;42.22;96543.16;5021127;28;20392;-64
2021/12/13 12:04:31;;;;;;;;;;;;;;;8.97;41.47;96540.50;5020963;28;19997;-65
2021/12/13 12:06:56;;;;;;;;;;;;;;;9.01;41.13;96535.78;5020127;28;19970;-65
2021/12/13 12:09:40;;;;;;;;;;;;;;;9.03;40.99;96537.28;5022870;28;19970;-65
2021/12/13 12:12:08;;;;;;;;;;;;;;;9.10;41.01;96548.16;5018981;28;20279;-65
2021/12/13 12:14:34;;;;;;;;;;;;;;;8.89;42.70;96535.91;5022521;28;19970;-65
2021/12/13 12:16:59;;;;;;;;;;;;;;;8.82;41.47;96540.97;5022357;28;19989;-64
2021/12/13 12:19:26;;;;;;;;;;;;;;;8.89;41.35;96537.72;5022284;28;20556;-65
2021/12/13 12:21:58;;;;;;;;;;;;;;;8.76;43.43;96538.88;5019031;28;20087;-65
2021/12/13 12:24:35;;;;;;;;;;;;;;;8.60;43.55;96541.31;5007023;28;20587;-64
2021/12/13 12:27:02;;;;;;;;;;;;;;;9.00;43.14;96536.72;5001319;28;19977;-65
2021/12/13 12:29:28;;;;;;;;;;;;;;;9.00;42.98;96545.53;5009618;28;20493;-65
2021/12/13 12:32:23;;;;;;;;;;;;;;;8.89;43.26;96532.41;5008784;28;20828;-65
2021/12/13 12:34:53;;;;;;;;;;;;;;;8.55;44.46;96531.09;5014369;28;20073;-65
2021/12/13 12:37:27;;;;;;;;;;;;;;;8.80;43.58;96539.41;5013768;28;20508;-65
2021/12/13 12:39:56;;;;;;;;;;;;;;;8.45;44.36;96536.44;5021748;28;19998;-65
2021/12/13 12:42:28;;;;;;;;;;;;;;;8.59;44.73;96531.63;5020626;28;20320;-65
2021/12/13 12:44:53;;;;;;;;;;;;;;;8.79;44.14;96535.94;5021799;28;19993;-66
2021/12/13 12:47:19;;;;;;;;;;;;;;;9.21;43.13;96541.81;5009660;28;20202;-65
2021/12/13 12:49:44;;;;;;;;;;;;;;;9.51;42.07;96550.50;5021235;28;19976;-65
2021/12/13 12:52:09;;;;;;;;;;;;;;;9.28;42.69;96545.56;5031090;28;19990;-66
2021/12/13 12:54:35;;;;;;;;;;;;;;;8.83;43.83;96547.09;5009200;28;20211;-67
2021/12/13 12:57:00;;;;;;;;;;;;;;;9.00;44.06;96550.00;5001410;28;19989;-67
2021/12/13 12:59:27;;;;;;;;;;;;;;;8.84;43.67;96548.75;5007571;28;20048;-68
2021/12/13 13:01:59;;;;;;;;;;;;;;;9.15;43.33;96540.59;5010259;28;20373;-68
2021/12/13 13:04:36;;;;;;;;;;;;;;;8.87;43.79;96531.72;5010498;28;19990;-68
2021/12/13 13:07:02;;;;;;;;;;;;;;;9.25;43.22;96532.56;5010020;28;19980;-68
2021/12/13 13:09:56;;;;;;;;;;;;;;;9.19;43.11;96531.34;4992679;28;19969;-69
2021/12/13 13:12:28;;;;;;;;;;;;;;;9.25;42.77;96537.06;5011722;28;20497;-69
2021/12/13 13:14:59;;;;;;;;;;;;;;;9.22;43.38;96537.34;5011222;28;20483;-69
2021/12/13 13:17:25;;;;;;;;;;;;;;;9.31;43.39;96547.09;5003582;28;19973;-69
2021/12/13 13:19:50;;;;;;;;;;;;;;;9.30;42.96;96546.28;5008178;28;20056;-70
2021/12/13 13:22:18;;;;;;;;;;;;;;;9.23;43.12;96545.19;5007534;28;20017;-69